Weersoverzicht van METAR-stations binnen 150 km

EHRD - Rotterdam Airport
Afstand tot weerstation: ZO 28 km
Update: 24-04-2018 00:55
Gedeeltelijk bewolkt
Gedeeltelijk bewolkt
 Wind van ZW
Wind: ZW 28 km/h
Temperatuur: 10°C
Gevoelstemperatuur: 7°C
Dauwpunt: 7°C
Luchtvochtigheid: 82%
Luchtdruk: 1015 hPa
Bewolking: Gedeeltelijk bewolkt
Zicht: 10 km
2018/04/23 22:55 EHRD 232255Z AUTO 22015KT 190V250 9999 NSC 10/07 Q1015 NOSIG
EHSC - Goeree Le Sea (Platform ter hoogte van Zeeland)
Afstand tot weerstation: WZW 36 km
Update: 24-04-2018 00:55

 Wind van WZW
Wind: WZW 46 km/h
Temperatuur: 10°C
Gevoelstemperatuur: 6°C
Dauwpunt: 7°C
Luchtvochtigheid: 82%
Luchtdruk: 1014 hPa
Zicht: 10 km
2018/04/23 22:55 EHSC 232255Z AUTO 24025KT 9999 ///////// 10/07 Q1014 W08/H14
 
EHAM - A'dam Schiphol
Afstand tot weerstation: ONO 51 km
Update: 24-04-2018 00:55
Helder
Helder
 Wind van ZZW
Wind: ZZW 22 km/h
Temperatuur: 10°C
Gevoelstemperatuur: 7°C
Dauwpunt: 7°C
Luchtvochtigheid: 82%
Luchtdruk: 1015 hPa
Overzicht: Helder
Zicht: Meer dan 10 km
2018/04/23 22:55 EHAM 232255Z 21012KT CAVOK 10/07 Q1015 NOSIG
EHSA - Euro Platform (Ter hoogte van Zeeland)
Afstand tot weerstation: W 58 km
Update: 24-04-2018 00:55

 Wind van ZZW
Wind: ZZW 43 km/h
Temperatuur: 10°C
Gevoelstemperatuur: 6°C
Dauwpunt: 8°C
Luchtvochtigheid: 88%
Luchtdruk: 1015 hPa
Zicht: 10 km
2018/04/23 22:55 EHSA 232255Z AUTO 21023KT 9999 ///////// 10/08 Q1015 W08/H18
 
EHPG - P11-B Sea (Platform ter hoogte van Zuid Holland)
Afstand tot weerstation: NW 60 km
Update: 24-04-2018 00:55
Overwegend bewolkt
Overwegend bewolkt
 Wind van ZW
Wind: ZW 52 km/h
Temperatuur: 10°C
Gevoelstemperatuur: 6°C
Dauwpunt: 8°C
Luchtvochtigheid: 88%
Luchtdruk: 1013 hPa
Bewolking: Overwegend bewolkt
Zicht: 10 km
Details Bewolking: Enkele wolken 1128 m
Overwegend bewolkt 1280 m
Overwegend bewolkt 1433 m
2018/04/23 22:55 EHPG 232255Z AUTO 22028KT 9999 FEW037 BKN042 BKN047 10/08 Q1013 W///H///
EHWO - Vliegveld Woensdrecht
Afstand tot weerstation: ZZO 65 km
Update: 24-04-2018 00:55
Zwaar bewolkt
Zwaar bewolkt
 Wind van ZW
Wind: ZW 20 km/h
Temperatuur: 10°C
Gevoelstemperatuur: 7°C
Dauwpunt: 6°C
Luchtvochtigheid: 76%
Luchtdruk: 1016 hPa
Bewolking: Zwaar bewolkt
Zicht: 10 km
Details Bewolking: Zwaar bewolkt 5791 m
2018/04/23 22:55 EHWO 232255Z AUTO 23011KT 9999 OVC190 10/06 Q1016 BLU
 
EHGR - Vliegveld Gilze-Rijen
Afstand tot weerstation: ZO 79 km
Update: 24-04-2018 00:55
Zwaar bewolkt
Zwaar bewolkt
 Wind van ZW
Wind: ZW 15 km/h
Temperatuur: 10°C
Gevoelstemperatuur: 8°C
Dauwpunt: 6°C
Luchtvochtigheid: 76%
Luchtdruk: 1016 hPa
Bewolking: Zwaar bewolkt
Zicht: 10 km
Details Bewolking: Zwaar bewolkt 6706 m
2018/04/23 22:55 EHGR 232255Z AUTO 22008KT 190V260 9999 OVC220 10/06 Q1016 BLU
EHQE - Hoorn-A Sea (Platform ter hoogte van Noord Holland)
Afstand tot weerstation: N 103 km
Update: 24-04-2018 00:55
Gedeeltelijk bewolkt
Gedeeltelijk bewolkt
 Wind van Z
Wind: Z 54 km/h
Temperatuur: 10°C
Gevoelstemperatuur: 6°C
Dauwpunt: 8°C
Luchtvochtigheid: 88%
Luchtdruk: 1012 hPa
Bewolking: Gedeeltelijk bewolkt
2018/04/23 22:55 EHQE 232255Z AUTO 18029KT //// // NSC 10/08 Q1012 RE// W///H///
 
EHKD - Marinebasis De Kooy (Den Helder)
Afstand tot weerstation: NNO 114 km
Update: 24-04-2018 00:55
Zwaar bewolkt
Zwaar bewolkt
 Wind van ZW
Wind: ZW 31 km/h
Temperatuur: 9°C
Gevoelstemperatuur: 5°C
Dauwpunt: 8°C
Luchtvochtigheid: 94%
Luchtdruk: 1013 hPa
Bewolking: Zwaar bewolkt
Zicht: 10 km
Details Bewolking: Zwaar bewolkt 3048 m
2018/04/23 22:55 EHKD 232255Z AUTO 22017KT 190V250 9999 OVC100 09/08 Q1013 BLU
EHEH - Vliegveld Eindhoven
Afstand tot weerstation: OZO 115 km
Update: 24-04-2018 00:55
Zwaar bewolkt
Zwaar bewolkt
 Wind van ZW
Wind: ZW 15 km/h
Temperatuur: 10°C
Gevoelstemperatuur: 8°C
Dauwpunt: 6°C
Luchtvochtigheid: 76%
Luchtdruk: 1017 hPa
Bewolking: Zwaar bewolkt
Zicht: 10 km
Details Bewolking: Zwaar bewolkt 7315 m
2018/04/23 22:55 EHEH 232255Z AUTO 23008KT 210V280 9999 OVC240 10/06 Q1017 BLU
 
EHVK - Vliegveld Volkel
Afstand tot weerstation: OZO 124 km
Update: 24-04-2018 00:55
Zwaar bewolkt
Zwaar bewolkt
 Wind van WZW
Wind: WZW 13 km/h
Temperatuur: 9°C
Gevoelstemperatuur: 7°C
Dauwpunt: 6°C
Luchtvochtigheid: 82%
Luchtdruk: 1017 hPa
Bewolking: Zwaar bewolkt
Zicht: 10 km
Details Bewolking: Overwegend bewolkt 4267 m
Zwaar bewolkt 6096 m
2018/04/23 22:55 EHVK 232255Z AUTO 24007KT 9999 BKN140 OVC200 09/06 Q1017 BLU
EHDL - Vliegveld Deelen
Afstand tot weerstation: O 128 km
Update: 24-04-2018 00:55
Zwaar bewolkt
Zwaar bewolkt
 Wind van ZW
Wind: ZW 7 km/h
Temperatuur: 7°C
Gevoelstemperatuur: 6°C
Dauwpunt: 5°C
Luchtvochtigheid: 87%
Luchtdruk: 1016 hPa
Bewolking: Zwaar bewolkt
Zicht: 10 km
Details Bewolking: Zwaar bewolkt 6706 m
2018/04/23 22:55 EHDL 232255Z AUTO 22004KT 180V250 9999 OVC220 07/05 Q1016 BLU